N215DS KFLL-MYGF
Flight info
| Callsign | N215DS |
|---|---|
| Flight time | N/A |
| Altitude | 7000 |
| Route | FLL2 FEALX PADUS |
| Aircraft | DA40/L-SDGRY/S |
Departure
| Time | N/A |
|---|---|
| Airport | Fort Lauderdale Hollywood International Airport (KFLL) |
Arrival
| Time | 2026-05-03 21:56 |
|---|---|
| Airport | Grand Bahama International Airport (MYGF) |
| Time | Latitude | Longitude | Altitude | Speed | Heading |
|---|---|---|---|---|---|
| 2026-05-03 21:27 | 26.23572 | -79.80178 | 1990 ft | 103 kts | 58° |
| 2026-05-03 21:27 | 26.23899 | -79.79483 | 1988 ft | 100 kts | 58° |
| 2026-05-03 21:27 | 26.24218 | -79.78797 | 1994 ft | 100 kts | 58° |
| 2026-05-03 21:27 | 26.24551 | -79.78087 | 2195 ft | 103 kts | 59° |
| 2026-05-03 21:28 | 26.24881 | -79.77376 | 2424 ft | 104 kts | 59° |
| 2026-05-03 21:28 | 26.25213 | -79.76654 | 2645 ft | 105 kts | 60° |
| 2026-05-03 21:28 | 26.25545 | -79.75937 | 2864 ft | 107 kts | 58° |
| 2026-05-03 21:28 | 26.25891 | -79.75192 | 3101 ft | 109 kts | 56° |
| 2026-05-03 21:29 | 26.26238 | -79.74436 | 3305 ft | 110 kts | 58° |
| 2026-05-03 21:29 | 26.26591 | -79.73672 | 3487 ft | 113 kts | 60° |
| 2026-05-03 21:29 | 26.26953 | -79.72886 | 3687 ft | 116 kts | 58° |
| 2026-05-03 21:29 | 26.27321 | -79.72089 | 3891 ft | 116 kts | 57° |
| 2026-05-03 21:30 | 26.27689 | -79.71287 | 4177 ft | 116 kts | 57° |
| 2026-05-03 21:30 | 26.28089 | -79.70494 | 4510 ft | 118 kts | 58° |
| 2026-05-03 21:30 | 26.28464 | -79.69670 | 4876 ft | 119 kts | 60° |
| 2026-05-03 21:30 | 26.28829 | -79.68844 | 5139 ft | 121 kts | 61° |
| 2026-05-03 21:31 | 26.29195 | -79.67992 | 5377 ft | 123 kts | 64° |
| 2026-05-03 21:31 | 26.29347 | -79.67045 | 5592 ft | 125 kts | 84° |
| 2026-05-03 21:31 | 26.29451 | -79.66076 | 5801 ft | 127 kts | 82° |
| 2026-05-03 21:31 | 26.29563 | -79.65096 | 5976 ft | 130 kts | 82° |
| 2026-05-03 21:32 | 26.29683 | -79.64032 | 5985 ft | 145 kts | 82° |
| 2026-05-03 21:32 | 26.29803 | -79.62926 | 5983 ft | 145 kts | 83° |
| 2026-05-03 21:32 | 26.29928 | -79.61804 | 5982 ft | 146 kts | 82° |
| 2026-05-03 21:32 | 26.30052 | -79.60681 | 5981 ft | 147 kts | 82° |
| 2026-05-03 21:33 | 26.30182 | -79.59529 | 5985 ft | 153 kts | 81° |
| 2026-05-03 21:33 | 26.30301 | -79.58303 | 5980 ft | 167 kts | 85° |
| 2026-05-03 21:33 | 26.30475 | -79.57037 | 6044 ft | 163 kts | 77° |
| 2026-05-03 21:33 | 26.30695 | -79.55795 | 5953 ft | 163 kts | 83° |
| 2026-05-03 21:34 | 26.30722 | -79.54571 | 5958 ft | 154 kts | 89° |
| 2026-05-03 21:34 | 26.30797 | -79.53401 | 5960 ft | 149 kts | 83° |
| 2026-05-03 21:34 | 26.30929 | -79.52282 | 5960 ft | 147 kts | 81° |
| 2026-05-03 21:34 | 26.31067 | -79.51158 | 5960 ft | 146 kts | 82° |
| 2026-05-03 21:35 | 26.31199 | -79.50039 | 5959 ft | 145 kts | 82° |
| 2026-05-03 21:35 | 26.31326 | -79.48921 | 5960 ft | 145 kts | 82° |
| 2026-05-03 21:35 | 26.31450 | -79.47799 | 5957 ft | 146 kts | 82° |
| 2026-05-03 21:35 | 26.31573 | -79.46673 | 5961 ft | 146 kts | 82° |
| 2026-05-03 21:36 | 26.31696 | -79.45544 | 5958 ft | 148 kts | 83° |
| 2026-05-03 21:36 | 26.31820 | -79.44399 | 5964 ft | 149 kts | 83° |
| 2026-05-03 21:36 | 26.31945 | -79.43243 | 5967 ft | 150 kts | 83° |
| 2026-05-03 21:36 | 26.32070 | -79.42083 | 5957 ft | 151 kts | 84° |
| 2026-05-03 21:37 | 26.32195 | -79.40915 | 5962 ft | 152 kts | 84° |
| 2026-05-03 21:37 | 26.32322 | -79.39741 | 5961 ft | 153 kts | 84° |
| 2026-05-03 21:37 | 26.32447 | -79.38578 | 5963 ft | 153 kts | 84° |
| 2026-05-03 21:37 | 26.32574 | -79.37401 | 5957 ft | 152 kts | 84° |
| 2026-05-03 21:38 | 26.32700 | -79.36226 | 5963 ft | 153 kts | 84° |
| 2026-05-03 21:38 | 26.32827 | -79.35046 | 5963 ft | 153 kts | 84° |
| 2026-05-03 21:38 | 26.32953 | -79.33870 | 5963 ft | 153 kts | 84° |
| 2026-05-03 21:38 | 26.33079 | -79.32693 | 5963 ft | 152 kts | 84° |
| 2026-05-03 21:39 | 26.33204 | -79.31522 | 5963 ft | 152 kts | 84° |
| 2026-05-03 21:39 | 26.33328 | -79.30364 | 5963 ft | 152 kts | 84° |
| 2026-05-03 21:39 | 26.33454 | -79.29188 | 5962 ft | 153 kts | 83° |
| 2026-05-03 21:39 | 26.33579 | -79.28017 | 5962 ft | 152 kts | 84° |
| 2026-05-03 21:40 | 26.33704 | -79.26848 | 5963 ft | 152 kts | 84° |
| 2026-05-03 21:40 | 26.33831 | -79.25659 | 5970 ft | 156 kts | 83° |
| 2026-05-03 21:40 | 26.33970 | -79.24418 | 5964 ft | 167 kts | 82° |
| 2026-05-03 21:40 | 26.34122 | -79.23137 | 5975 ft | 170 kts | 83° |
| 2026-05-03 21:41 | 26.34296 | -79.21853 | 5955 ft | 161 kts | 83° |
| 2026-05-03 21:41 | 26.34361 | -79.20663 | 5955 ft | 147 kts | 88° |
| 2026-05-03 21:41 | 26.34451 | -79.19554 | 5956 ft | 140 kts | 84° |
| 2026-05-03 21:41 | 26.34572 | -79.18505 | 5957 ft | 133 kts | 83° |
| 2026-05-03 21:42 | 26.34687 | -79.17500 | 5958 ft | 129 kts | 83° |
| 2026-05-03 21:42 | 26.34797 | -79.16512 | 5957 ft | 128 kts | 84° |
| 2026-05-03 21:42 | 26.34904 | -79.15529 | 5957 ft | 128 kts | 84° |
| 2026-05-03 21:42 | 26.35009 | -79.14547 | 5957 ft | 127 kts | 84° |
| 2026-05-03 21:43 | 26.35113 | -79.13572 | 5815 ft | 128 kts | 83° |
| 2026-05-03 21:43 | 26.35213 | -79.12619 | 5858 ft | 120 kts | 83° |
| 2026-05-03 21:43 | 26.35314 | -79.11690 | 5925 ft | 124 kts | 84° |
| 2026-05-03 21:43 | 26.35415 | -79.10716 | 5958 ft | 129 kts | 84° |
| 2026-05-03 21:44 | 26.35764 | -79.09773 | 5801 ft | 138 kts | 53° |
| 2026-05-03 21:44 | 26.36251 | -79.08846 | 5638 ft | 139 kts | 58° |
| 2026-05-03 21:44 | 26.36710 | -79.07903 | 5473 ft | 138 kts | 58° |
| 2026-05-03 21:44 | 26.37168 | -79.06968 | 5293 ft | 137 kts | 58° |
| 2026-05-03 21:45 | 26.37629 | -79.06050 | 5129 ft | 135 kts | 58° |
| 2026-05-03 21:45 | 26.38091 | -79.05136 | 4963 ft | 136 kts | 58° |
| 2026-05-03 21:45 | 26.38556 | -79.04215 | 4794 ft | 136 kts | 58° |
| 2026-05-03 21:45 | 26.39015 | -79.03302 | 4625 ft | 137 kts | 58° |
| 2026-05-03 21:46 | 26.39481 | -79.02378 | 4448 ft | 136 kts | 58° |
| 2026-05-03 21:46 | 26.39940 | -79.01462 | 4274 ft | 134 kts | 58° |
| 2026-05-03 21:46 | 26.40393 | -79.00556 | 4099 ft | 133 kts | 58° |
| 2026-05-03 21:46 | 26.40834 | -78.99665 | 3926 ft | 130 kts | 59° |
| 2026-05-03 21:47 | 26.41277 | -78.98794 | 3752 ft | 129 kts | 57° |
| 2026-05-03 21:47 | 26.41729 | -78.97936 | 3579 ft | 128 kts | 59° |
| 2026-05-03 21:47 | 26.42141 | -78.97055 | 3422 ft | 129 kts | 60° |
| 2026-05-03 21:47 | 26.42580 | -78.96164 | 3263 ft | 133 kts | 57° |
| 2026-05-03 21:48 | 26.43058 | -78.95283 | 3114 ft | 138 kts | 56° |
| 2026-05-03 21:48 | 26.43521 | -78.94336 | 2939 ft | 139 kts | 62° |
| 2026-05-03 21:48 | 26.43981 | -78.93385 | 2778 ft | 137 kts | 60° |
| 2026-05-03 21:48 | 26.44428 | -78.92473 | 2612 ft | 130 kts | 60° |
| 2026-05-03 21:49 | 26.44858 | -78.91604 | 2432 ft | 126 kts | 60° |
| 2026-05-03 21:49 | 26.45280 | -78.90762 | 2257 ft | 123 kts | 60° |
| 2026-05-03 21:49 | 26.45687 | -78.89951 | 2082 ft | 120 kts | 60° |
| 2026-05-03 21:49 | 26.46094 | -78.89141 | 1907 ft | 118 kts | 60° |
| 2026-05-03 21:50 | 26.46495 | -78.88342 | 1735 ft | 117 kts | 60° |
| 2026-05-03 21:50 | 26.46891 | -78.87552 | 1575 ft | 115 kts | 60° |
| 2026-05-03 21:50 | 26.47261 | -78.86811 | 1555 ft | 103 kts | 60° |
| 2026-05-03 21:50 | 26.47597 | -78.86136 | 1554 ft | 101 kts | 60° |
| 2026-05-03 21:51 | 26.47961 | -78.85409 | 1558 ft | 111 kts | 60° |
| 2026-05-03 21:51 | 26.48345 | -78.84640 | 1568 ft | 115 kts | 60° |
| 2026-05-03 21:51 | 26.48739 | -78.83848 | 1566 ft | 118 kts | 60° |
| 2026-05-03 21:51 | 26.49139 | -78.83041 | 1570 ft | 119 kts | 60° |
| 2026-05-03 21:52 | 26.49540 | -78.82236 | 1571 ft | 120 kts | 60° |
| 2026-05-03 21:52 | 26.49954 | -78.81421 | 1564 ft | 121 kts | 60° |
| 2026-05-03 21:52 | 26.50358 | -78.80599 | 1564 ft | 120 kts | 61° |
| 2026-05-03 21:52 | 26.50763 | -78.79784 | 1564 ft | 120 kts | 60° |
| 2026-05-03 21:53 | 26.51169 | -78.78971 | 1565 ft | 120 kts | 60° |
| 2026-05-03 21:53 | 26.51577 | -78.78158 | 1537 ft | 122 kts | 60° |
| 2026-05-03 21:53 | 26.51998 | -78.77318 | 1419 ft | 128 kts | 60° |
| 2026-05-03 21:53 | 26.52430 | -78.76451 | 1266 ft | 127 kts | 60° |
| 2026-05-03 21:54 | 26.52837 | -78.75633 | 1054 ft | 110 kts | 60° |
| 2026-05-03 21:54 | 26.53197 | -78.74913 | 851 ft | 104 kts | 58° |
| 2026-05-03 21:54 | 26.53546 | -78.74225 | 649 ft | 103 kts | 59° |
| 2026-05-03 21:54 | 26.53900 | -78.73513 | 416 ft | 103 kts | 58° |
| 2026-05-03 21:55 | 26.54223 | -78.72859 | 215 ft | 86 kts | 58° |
| 2026-05-03 21:55 | 26.54492 | -78.72315 | 277 ft | 74 kts | 58° |
| 2026-05-03 21:55 | 26.54750 | -78.71798 | 218 ft | 79 kts | 60° |
| 2026-05-03 21:55 | 26.55031 | -78.71248 | 116 ft | 80 kts | 59° |
| 2026-05-03 21:56 | 26.55276 | -78.70748 | 15 ft | 66 kts | 60° |
| 2026-05-03 21:56 | 26.55475 | -78.70347 | 10 ft | 54 kts | 58° |
| 2026-05-03 21:56 | 26.55641 | -78.70019 | 8 ft | 44 kts | 57° |
| 2026-05-03 21:56 | 26.55783 | -78.69740 | 7 ft | 39 kts | 62° |
| 2026-05-03 21:57 | 26.55885 | -78.69511 | 8 ft | 25 kts | 85° |
| 2026-05-03 21:57 | 26.55790 | -78.69452 | 8 ft | 18 kts | 207° |
| 2026-05-03 21:57 | 26.55678 | -78.69556 | 8 ft | 24 kts | 223° |
| 2026-05-03 21:57 | 26.55541 | -78.69690 | 8 ft | 28 kts | 219° |
| 2026-05-03 21:58 | 26.55386 | -78.69840 | 8 ft | 31 kts | 226° |
| 2026-05-03 21:58 | 26.55222 | -78.70004 | 8 ft | 33 kts | 222° |
| 2026-05-03 21:58 | 26.55045 | -78.70175 | 9 ft | 34 kts | 222° |
| 2026-05-03 21:58 | 26.54900 | -78.70269 | 9 ft | 13 kts | 138° |
| 2026-05-03 21:59 | 26.54901 | -78.70164 | 9 ft | 15 kts | 99° |
| 2026-05-03 21:59 | 26.54876 | -78.70082 | 9 ft | 6 kts | 86° |
| 2026-05-03 21:59 | 26.54876 | -78.70079 | 9 ft | 0 kts | 87° |